ADDS METAR Data INFO
IDs: Format: Raw Decoded Include TAF

Data at: 0156 UTC 25 Feb 2018

KVIS 250056Z AUTO 33009KT 10SM CLR 14/M08 A3026 RMK AO2 SLP258 T01441078
KVIS 242356Z AUTO 31003KT 10SM CLR 14/M05 A3028 RMK AO2 SLP265 T01441050 10150 20067 56027
KVIS 242256Z AUTO VRB05KT 10SM CLR 14/M04 A3031 RMK AO2 SLP273 T01441044
KVIS 242156Z AUTO VRB05KT 10SM CLR 13/M04 A3034 RMK AO2 SLP284 T01331039
KVIS 242056Z AUTO 23004KT 10SM CLR 12/M04 A3036 RMK AO2 SLP291 T01221044 58028
KVIS 241956Z AUTO VRB03KT 10SM CLR 11/M04 A3040 RMK AO2 SLP303 T01111044
KVIS 241856Z AUTO 15003KT 10SM CLR 09/M03 A3042 RMK AO2 SLP312 T00891033
KVIS 241756Z AUTO VRB03KT 10SM CLR 07/M04 A3045 RMK AO2 SLP320 T00671039 10067 21022 51006
KVIS 241656Z AUTO 17003KT 10SM CLR 04/M04 A3045 RMK AO2 SLP320 T00441039
KVIS 241556Z AUTO 14005KT 10SM CLR 01/M03 A3044 RMK AO2 SLP317 T00111028 FZRANO
KVIS 241456Z AUTO 13005KT 10SM CLR M01/M03 A3043 RMK AO2 SLP315 T10111033 51006 FZRANO
KVIS 241356Z AUTO 13005KT 10SM CLR M02/M04 A3043 RMK AO2 SLP314 T10171039 FZRANO
KVIS 241256Z AUTO 11003KT 10SM CLR M01/M04 A3042 RMK AO2 SLP312 T10111039 FZRANO TSNO
KVIS 241156Z AUTO 13004KT 10SM CLR M01/M03 A3041 RMK AO2 SLP307 T10061033 10044 21011 51000 FZRANO
KVIS 241056Z AUTO 00000KT 10SM CLR M01/M04 A3041 RMK AO2 SLP307 T10111039 FZRANO
KVIS 240956Z AUTO 15003KT 10SM CLR 00/M03 A3042 RMK AO2 SLP309 T00001033 FZRANO
KVIS 240856Z AUTO 00000KT 10SM CLR 00/M04 A3041 RMK AO2 SLP307 T00001039 53010 FZRANO
KVIS 240756Z AUTO 28005KT 10SM CLR 02/M05 A3040 RMK AO2 SLP305 T00221050 401220006 FZRANO
KVIS 240656Z AUTO 00000KT 10SM CLR 02/M04 A3038 RMK AO2 SLP298 T00221039 FZRANO
KVIS 240556Z AUTO 00000KT 10SM CLR 03/M04 A3038 RMK AO2 SLP297 T00281039 10117 20022 51013
KVIS 240356Z AUTO 00000KT 10SM CLR 06/M06 A3036 RMK AO2 SLP290 T00561056
KVIS 240256Z AUTO 29007KT 10SM CLR 07/M06 A3034 RMK AO2 SLP285 T00721061 53015